ADDS METAR Data INFO
IDs: Format: Raw Decoded Include TAF

Data at: 1247 UTC 19 Oct 2017

KJAX 191156Z 36009KT 10SM FEW020 SCT060 SCT200 19/17 A3015 RMK AO2 SLP211 70002 T01890172 10217 20189 51009
KJAX 191056Z 35007KT 10SM FEW022 SCT060 19/18 A3015 RMK AO2 SLP209 T01940178
KJAX 190956Z 36007KT 10SM FEW030 BKN060 20/18 A3014 RMK AO2 SLP208 T02000178
KJAX 190856Z 36009KT 10SM FEW023 SCT034 BKN048 20/18 A3013 RMK AO2 SLP203 T02000183 56008
KJAX 190756Z 36009KT 10SM SCT015 BKN020 OVC028 21/19 A3013 RMK AO2 SLP204 T02060189
KJAX 190656Z 33006KT 10SM OVC022 21/19 A3014 RMK AO2 SLP206 T02110194
KJAX 190556Z 34006KT 10SM BKN023 BKN028 OVC040 22/20 A3015 RMK AO2 SLP210 60002 T02170200 10228 20217 58013
KJAX 190553Z 34005KT 10SM BKN023 BKN028 OVC040 22/20 A3015 RMK AO2
KJAX 190456Z 36006KT 10SM SCT023 OVC030 22/21 A3017 RMK AO2 SLP215 T02220206 402720156
KJAX 190356Z 36006KT 10SM FEW014 BKN030 OVC045 22/20 A3019 RMK AO2 RAB15E30 SLP222 P0002 T02170200
KJAX 190256Z 36007KT 10SM SCT019 BKN030 BKN050 22/20 A3019 RMK AO2 SLP223 60000 T02170200 50003
KJAX 190156Z 36007KT 10SM FEW018 SCT034 BKN046 22/19 A3019 RMK AO2 SLP223 T02170194
KJAX 190056Z 36006KT 10SM FEW020 BKN030 BKN048 22/20 A3019 RMK AO2 RAB23E37 SLP223 P0000 T02220200
KJAX 182356Z 02009KT 10SM FEW020 BKN030 BKN048 23/19 A3018 RMK AO2 SLP219 T02280194 10267 20228 53006
KJAX 182256Z 02010KT 10SM SCT020 BKN030 BKN048 23/19 A3017 RMK AO2 SLP217 T02330194
KJAX 182156Z 03011G21KT 10SM SCT020 BKN033 BKN048 24/19 A3016 RMK AO2 SLP214 T02390194
KJAX 182056Z 02013G19KT 10SM SCT023 BKN033 BKN250 26/20 A3016 RMK AO2 SLP213 T02560200 56007
KJAX 181956Z 04015KT 10SM SCT023 BKN033 26/19 A3017 RMK AO2 SLP215 T02610194
KJAX 181856Z 04017G24KT 10SM SCT023 SCT035 26/19 A3017 RMK AO2 PK WND 02026/1842 SLP216 T02610194
KJAX 181756Z 06018G24KT 10SM SCT023 SCT035 27/20 A3018 RMK AO2 PK WND 04026/1721 SLP221 T02670200 10272 20167 58008
KJAX 181656Z 04017G24KT 10SM SCT021 BKN032 27/20 A3020 RMK AO2 PK WND 05027/1641 SLP226 T02670200
KJAX 181556Z 04017KT 10SM SCT028 BKN037 26/19 A3021 RMK AO2 PK WND 07027/1532 SLP229 T02560194
KJAX 181456Z 04019G24KT 10SM SCT026 SCT035 26/19 A3021 RMK AO2 SLP229 T02610194 51009
KJAX 181356Z 02009KT 10SM SCT029 23/18 A3020 RMK AO2 SLP227 T02280178
KJAX 181256Z 01008KT 10SM SCT028 18/15 A3019 RMK AO2 SLP222 T01830150
KJAX 181156Z 36007KT 10SM SCT020 17/14 A3018 RMK AO2 SLP219 T01670139 10167 20156 53014
KJAX 181056Z 36007KT 10SM FEW040 FEW250 16/13 A3016 RMK AO2 SLP213 T01610133
KJAX 180956Z 01008KT 10SM FEW040 16/13 A3015 RMK AO2 SLP210 T01610128
KJAX 180856Z 36009KT 10SM SCT029 BKN037 BKN045 16/12 A3014 RMK AO2 SLP206 T01610122 58004
KJAX 180756Z 36010KT 10SM BKN034 OVC045 16/12 A3014 RMK AO2 SLP207 T01610122
KJAX 180656Z 35006KT 10SM BKN034 OVC045 17/13 A3015 RMK AO2 SLP210 T01670128
KJAX 180556Z 33007KT 10SM SCT028 OVC039 17/13 A3015 RMK AO2 SLP209 T01670133 10189 20167 58011
KJAX 180456Z 32009KT 10SM SCT028 OVC039 17/13 A3016 RMK AO2 SLP214 T01670133 402330167
KJAX 180356Z 32008KT 10SM BKN032 BKN044 17/14 A3017 RMK AO2 SLP218 T01670139
KJAX 180256Z 34007KT 10SM FEW027 BKN037 17/14 A3018 RMK AO2 SLP220 T01720144 50002
KJAX 180156Z 34006KT 10SM FEW031 SCT042 SCT250 17/14 A3018 RMK AO2 SLP221 T01720144
KJAX 180056Z 34006KT 10SM BKN031 BKN042 BKN250 18/14 A3018 RMK AO2 SLP219 T01830144